createdAt,value
2023-05-22T00:05:50.896Z,17.7
2023-05-22T00:11:26.646Z,17.7
2023-05-22T00:17:17.599Z,17.7
2023-05-22T00:23:10.189Z,17.7
2023-05-22T00:29:01.706Z,17.7
2023-05-22T00:34:52.943Z,17.7
2023-05-22T00:40:44.941Z,17.7
2023-05-22T00:46:36.517Z,17.7
2023-05-22T00:52:27.669Z,17.7
2023-05-22T00:58:18.830Z,17.7
2023-05-22T01:04:12.148Z,17.7
2023-05-22T01:10:03.587Z,17.7
2023-05-22T01:15:55.168Z,17.7
2023-05-22T01:21:47.837Z,17.7
2023-05-22T01:27:39.098Z,17.7
2023-05-22T01:33:31.063Z,17.7
2023-05-22T01:39:22.307Z,17.7
2023-05-22T01:45:14.219Z,17.7
2023-05-22T01:51:06.161Z,17.7
2023-05-22T01:56:56.791Z,17.7
2023-05-22T02:02:49.504Z,17.7
2023-05-22T02:08:42.493Z,17.7
2023-05-22T02:14:34.190Z,17.7
2023-05-22T02:20:10.663Z,17.7
2023-05-22T02:26:02.475Z,17.7
2023-05-22T02:31:54.393Z,17.7
2023-05-22T02:37:45.931Z,17.7
2023-05-22T02:43:38.025Z,17.7
2023-05-22T02:49:30.068Z,17.7
2023-05-22T02:55:20.825Z,17.7
2023-05-22T03:01:13.093Z,17.6
2023-05-22T03:07:05.107Z,17.6
2023-05-22T03:12:56.747Z,17.6
2023-05-22T03:18:48.814Z,17.6
2023-05-22T03:24:40.132Z,17.6
2023-05-22T03:30:31.598Z,17.6
2023-05-22T03:36:24.284Z,17.6
2023-05-22T03:42:00.028Z,17.6
2023-05-22T03:47:37.810Z,17.6
2023-05-22T03:53:32.480Z,17.6
2023-05-22T03:59:23.340Z,17.6
2023-05-22T04:05:14.556Z,17.6
2023-05-22T04:11:07.174Z,17.6
2023-05-22T04:16:58.489Z,17.6
2023-05-22T04:22:49.793Z,17.6
2023-05-22T04:28:41.480Z,17.6
2023-05-22T04:34:17.898Z,17.6
2023-05-22T04:39:53.626Z,17.6
2023-05-22T04:45:47.519Z,17.6
2023-05-22T04:51:39.399Z,17.6
2023-05-22T04:57:43.042Z,17.6
2023-05-22T05:03:36.597Z,17.6
2023-05-22T05:09:29.376Z,17.6
2023-05-22T05:15:20.528Z,17.6
2023-05-22T05:21:16.259Z,17.6
2023-05-22T05:26:51.872Z,17.6
2023-05-22T05:32:42.935Z,17.6
2023-05-22T05:38:19.763Z,17.6
2023-05-22T05:44:10.832Z,17.6
2023-05-22T05:50:01.972Z,17.6
2023-05-22T05:55:53.972Z,17.6
2023-05-22T06:01:47.216Z,17.6
2023-05-22T06:07:40.048Z,17.6
2023-05-22T06:13:16.549Z,17.6
2023-05-22T06:19:09.332Z,17.6
2023-05-22T06:25:01.063Z,17.6
2023-05-22T06:31:12.633Z,17.6
2023-05-22T06:37:05.922Z,17.6
2023-05-22T06:42:56.916Z,17.6
2023-05-22T06:48:50.204Z,17.6
2023-05-22T06:54:41.845Z,17.6
2023-05-22T07:00:33.661Z,17.6
2023-05-22T07:06:27.011Z,17.6
2023-05-22T07:12:21.680Z,17.6
2023-05-22T07:18:16.168Z,17.6
2023-05-22T07:24:09.880Z,17.6
2023-05-22T07:30:01.205Z,17.6
2023-05-22T07:35:54.233Z,17.6
2023-05-22T07:41:48.706Z,17.6
2023-05-22T07:47:41.565Z,17.6
2023-05-22T07:53:33.415Z,17.6
2023-05-22T07:59:27.483Z,17.6
2023-05-22T08:05:05.743Z,17.6
2023-05-22T08:11:22.070Z,17.6
2023-05-22T08:17:24.120Z,17.6
2023-05-22T08:23:02.274Z,17.6
2023-05-22T08:28:54.553Z,17.6
2023-05-22T08:34:48.276Z,17.6
2023-05-22T08:40:41.366Z,17.6
2023-05-22T08:46:33.910Z,17.6
2023-05-22T08:52:26.911Z,17.6
2023-05-22T08:58:25.572Z,17.6
2023-05-22T09:04:19.741Z,17.6
2023-05-22T09:10:25.008Z,17.7
2023-05-22T09:16:18.387Z,17.6
2023-05-22T09:22:22.983Z,17.6
2023-05-22T09:28:17.606Z,17.6
2023-05-22T09:34:10.458Z,17.7
2023-05-22T09:40:03.248Z,17.6
2023-05-22T09:45:58.137Z,17.6
2023-05-22T09:51:51.139Z,17.6
2023-05-22T09:57:58.511Z,17.7
2023-05-22T10:03:54.434Z,17.7
2023-05-22T10:09:51.951Z,17.7
2023-05-22T10:15:44.561Z,17.7
2023-05-22T10:21:42.400Z,17.7
2023-05-22T10:27:20.290Z,17.7
2023-05-22T10:33:13.482Z,17.7
2023-05-22T10:39:17.884Z,17.7
2023-05-22T10:45:12.021Z,17.7
2023-05-22T10:50:51.225Z,17.7
2023-05-22T10:56:45.348Z,17.7
2023-05-22T11:02:40.044Z,17.7
2023-05-22T11:08:43.492Z,17.7
2023-05-22T11:14:39.896Z,17.7
2023-05-22T11:20:47.284Z,17.7
2023-05-22T11:26:40.228Z,17.7
2023-05-22T11:33:04.685Z,17.7
2023-05-22T11:38:41.815Z,17.7
2023-05-22T11:44:36.429Z,17.7
2023-05-22T11:50:42.100Z,17.7
2023-05-22T11:56:36.485Z,17.8
2023-05-22T12:02:32.617Z,17.8
2023-05-22T12:08:32.492Z,17.8
2023-05-22T12:14:28.284Z,17.8
2023-05-22T12:20:07.680Z,17.8
2023-05-22T12:26:03.085Z,17.9
2023-05-22T12:31:59.766Z,17.9
2023-05-22T12:37:39.229Z,17.9
2023-05-22T12:43:34.790Z,17.9
2023-05-22T12:49:14.420Z,17.9
2023-05-22T12:55:13.130Z,17.9
2023-05-22T13:01:08.633Z,17.9
2023-05-22T13:07:04.655Z,18
2023-05-22T13:12:45.727Z,17.9
2023-05-22T13:18:47.778Z,18
2023-05-22T13:24:49.664Z,18
2023-05-22T13:30:33.818Z,18.1
2023-05-22T13:36:32.707Z,18.1
2023-05-22T13:42:29.376Z,18.1
2023-05-22T13:48:25.161Z,18.1
2023-05-22T13:54:04.737Z,18.1
2023-05-22T13:59:59.827Z,18.1
2023-05-22T14:05:22.852Z,18.1
2023-05-22T14:11:00.798Z,18.1
2023-05-22T14:16:37.557Z,18.2
2023-05-22T14:22:14.631Z,18.2
2023-05-22T14:28:19.225Z,18.2
2023-05-22T14:34:11.944Z,18.2
2023-05-22T14:39:49.299Z,18.2
2023-05-22T14:45:10.657Z,18.2
2023-05-22T14:51:16.717Z,18.3
2023-05-22T14:57:09.167Z,18.3
2023-05-22T15:03:03.075Z,18.3
2023-05-22T15:09:05.735Z,18.3
2023-05-22T15:14:58.093Z,18.3
2023-05-22T15:20:51.830Z,18.3
2023-05-22T15:26:58.228Z,18.3
2023-05-22T15:32:51.636Z,18.3
2023-05-22T15:38:44.337Z,18.3
2023-05-22T15:44:48.925Z,18.3
2023-05-22T15:50:41.848Z,18.3
2023-05-22T15:56:36.719Z,18.4
2023-05-22T16:02:31.426Z,18.3
2023-05-22T16:08:08.955Z,18.3
2023-05-22T16:14:02.157Z,18.3
2023-05-22T16:20:01.454Z,18.3
2023-05-22T16:26:08.242Z,18.3
2023-05-22T16:32:01.609Z,18.3
2023-05-22T16:37:39.707Z,18.3
2023-05-22T16:43:33.748Z,18.3
2023-05-22T16:49:26.520Z,18.3
2023-05-22T16:55:18.994Z,18.4
2023-05-22T17:01:11.814Z,18.3
2023-05-22T17:07:06.128Z,18.3
2023-05-22T17:12:43.219Z,18.3
2023-05-22T17:18:35.749Z,18.3
2023-05-22T17:24:32.433Z,18.3
2023-05-22T17:30:05.285Z,18.3
2023-05-22T17:35:58.126Z,18.3
2023-05-22T17:42:06.181Z,18.3
2023-05-22T17:47:59.185Z,18.3
2023-05-22T17:53:52.202Z,18.3
2023-05-22T17:59:30.099Z,18.3
2023-05-22T18:04:52.875Z,18.3
2023-05-22T18:10:47.923Z,18.3
2023-05-22T18:16:56.725Z,18.3
2023-05-22T18:22:48.752Z,18.3
2023-05-22T18:28:10.565Z,18.3
2023-05-22T18:34:03.239Z,18.3
2023-05-22T18:39:56.205Z,18.3
2023-05-22T18:45:48.615Z,18.3
2023-05-22T18:51:41.813Z,18.3
2023-05-22T18:57:34.100Z,18.2
2023-05-22T19:03:27.682Z,18.2
2023-05-22T19:08:34.866Z,18.2
2023-05-22T19:13:59.760Z,18.2
2023-05-22T19:19:21.808Z,18.2
2023-05-22T19:24:28.227Z,18.2
2023-05-22T19:30:07.966Z,18.2
2023-05-22T19:35:46.319Z,18.2
2023-05-22T19:41:39.711Z,18.2
2023-05-22T19:47:16.820Z,18.2
2023-05-22T19:53:10.210Z,18.1
2023-05-22T19:59:02.710Z,18.2
2023-05-22T20:04:41.613Z,18.2
2023-05-22T20:10:02.851Z,18.1
2023-05-22T20:15:40.609Z,18.2
2023-05-22T20:21:33.634Z,18.1
2023-05-22T20:27:26.214Z,18.1
2023-05-22T20:33:19.432Z,18.1
2023-05-22T20:39:12.201Z,18.1
2023-05-22T20:45:04.739Z,18.1
2023-05-22T20:50:42.309Z,18.1
2023-05-22T20:56:34.318Z,18.1
2023-05-22T21:02:26.222Z,18.1
2023-05-22T21:08:19.629Z,18.1
2023-05-22T21:14:13.904Z,18.1
2023-05-22T21:20:06.568Z,18.1
2023-05-22T21:25:59.639Z,18.1
2023-05-22T21:31:53.409Z,18.1
2023-05-22T21:37:45.500Z,18.1
2023-05-22T21:43:35.683Z,18.1
2023-05-22T21:49:28.107Z,18.1
2023-05-22T21:55:21.439Z,18.1
2023-05-22T22:01:14.800Z,18.1
2023-05-22T22:07:08.006Z,18.1
2023-05-22T22:13:00.347Z,18.1
2023-05-22T22:18:53.424Z,18.1
2023-05-22T22:24:59.245Z,18.1
2023-05-22T22:30:51.005Z,18.1
2023-05-22T22:36:44.197Z,18.1
2023-05-22T22:42:23.778Z,18.1
2023-05-22T22:48:01.993Z,18.1
2023-05-22T22:53:55.370Z,18.1
2023-05-22T22:59:48.127Z,18
2023-05-22T23:05:41.570Z,18.1
2023-05-22T23:11:34.277Z,18
2023-05-22T23:17:26.921Z,18
2023-05-22T23:23:03.583Z,18
2023-05-22T23:28:28.718Z,18
2023-05-22T23:34:04.710Z,18
2023-05-22T23:39:40.816Z,18
2023-05-22T23:45:18.633Z,18
2023-05-22T23:51:10.152Z,18
2023-05-22T23:57:02.365Z,18
